createdAt,value
2018-08-16T00:01:18.850Z,77.72
2018-08-16T00:03:48.148Z,77.09
2018-08-16T00:06:18.002Z,77.43
2018-08-16T00:08:47.379Z,77.23
2018-08-16T00:11:16.702Z,77.19
2018-08-16T00:13:46.578Z,76.33
2018-08-16T00:16:15.751Z,76.37
2018-08-16T00:18:45.074Z,76.40
2018-08-16T00:21:14.468Z,75.74
2018-08-16T00:23:43.867Z,75.55
2018-08-16T00:26:13.565Z,75.68
2018-08-16T00:28:43.010Z,75.48
2018-08-16T00:31:12.549Z,75.12
2018-08-16T00:33:42.280Z,75.20
2018-08-16T00:36:11.640Z,75.09
2018-08-16T00:38:41.052Z,74.91
2018-08-16T00:41:10.418Z,74.87
2018-08-16T00:43:40.101Z,75.35
2018-08-16T00:46:09.414Z,74.87
2018-08-16T00:48:38.774Z,74.99
2018-08-16T00:51:08.358Z,75.30
2018-08-16T00:53:37.444Z,74.68
2018-08-16T00:56:07.112Z,74.68
2018-08-16T00:58:36.757Z,75.10
2018-08-16T01:01:06.954Z,74.87
2018-08-16T01:03:36.381Z,75.10
2018-08-16T01:06:06.257Z,75.00
2018-08-16T01:08:35.403Z,75.49
2018-08-16T01:11:04.605Z,75.02
2018-08-16T01:13:33.974Z,75.51
2018-08-16T01:16:03.220Z,75.55
2018-08-16T01:18:32.625Z,74.87
2018-08-16T01:21:02.278Z,74.76
2018-08-16T01:23:31.420Z,74.67
2018-08-16T01:26:00.581Z,75.13
2018-08-16T01:28:30.251Z,74.73
2018-08-16T01:30:59.532Z,74.85
2018-08-16T01:33:28.968Z,74.79
2018-08-16T01:35:58.598Z,74.64
2018-08-16T01:38:28.544Z,74.61
2018-08-16T01:40:58.062Z,75.10
2018-08-16T01:43:28.364Z,75.00
2018-08-16T01:45:57.932Z,74.58
2018-08-16T01:48:27.558Z,75.21
2018-08-16T01:50:57.502Z,74.97
2018-08-16T01:53:27.619Z,75.14
2018-08-16T01:55:57.346Z,74.91
2018-08-16T01:58:27.295Z,74.87
2018-08-16T02:00:56.552Z,74.57
2018-08-16T02:03:26.177Z,74.38
2018-08-16T02:05:56.214Z,74.38
2018-08-16T02:08:26.645Z,74.22
2018-08-16T02:10:56.170Z,74.63
2018-08-16T02:13:25.982Z,74.52
2018-08-16T02:15:56.024Z,74.78
2018-08-16T02:18:25.714Z,74.39
2018-08-16T02:20:55.382Z,74.46
2018-08-16T02:23:25.163Z,74.40
2018-08-16T02:25:55.259Z,74.85
2018-08-16T02:28:24.822Z,74.26
2018-08-16T02:30:54.413Z,74.73
2018-08-16T02:33:23.884Z,74.18
2018-08-16T02:35:53.187Z,74.66
2018-08-16T02:38:23.048Z,74.15
2018-08-16T02:40:52.240Z,74.66
2018-08-16T02:43:21.533Z,74.47
2018-08-16T02:45:50.761Z,74.07
2018-08-16T02:48:20.024Z,74.13
2018-08-16T02:50:49.789Z,74.54
2018-08-16T02:53:19.486Z,74.13
2018-08-16T02:55:48.755Z,74.39
2018-08-16T02:58:18.451Z,74.30
2018-08-16T03:00:47.943Z,74.76
2018-08-16T03:03:17.228Z,74.46
2018-08-16T03:05:46.654Z,75.21
2018-08-16T03:08:15.774Z,75.30
2018-08-16T03:10:45.263Z,75.24
2018-08-16T03:13:14.917Z,75.00
2018-08-16T03:15:44.172Z,75.15
2018-08-16T03:18:13.281Z,75.43
2018-08-16T03:20:42.938Z,75.54
2018-08-16T03:23:12.190Z,75.09
2018-08-16T03:25:41.839Z,75.29
2018-08-16T03:28:11.233Z,75.58
2018-08-16T03:30:40.350Z,75.59
2018-08-16T03:33:10.216Z,75.66
2018-08-16T03:35:39.736Z,75.87
2018-08-16T03:38:08.856Z,75.81
2018-08-16T03:40:38.527Z,75.96
2018-08-16T03:43:08.486Z,76.29
2018-08-16T03:45:38.054Z,75.83
2018-08-16T03:48:07.405Z,76.41
2018-08-16T03:50:36.797Z,76.25
2018-08-16T03:53:06.297Z,76.20
2018-08-16T03:55:35.573Z,76.17
2018-08-16T03:58:05.451Z,75.88
2018-08-16T04:00:34.680Z,76.16
2018-08-16T04:03:04.574Z,75.73
2018-08-16T04:05:34.023Z,75.64
2018-08-16T04:08:03.771Z,75.70
2018-08-16T04:10:33.346Z,75.84
2018-08-16T04:13:03.767Z,76.33
2018-08-16T04:15:32.989Z,76.18
2018-08-16T04:18:02.049Z,76.08
2018-08-16T04:20:31.742Z,76.14
2018-08-16T04:23:00.937Z,75.88
2018-08-16T04:25:30.424Z,75.79
2018-08-16T04:27:59.844Z,76.42
2018-08-16T04:30:29.135Z,76.22
2018-08-16T04:32:58.537Z,75.74
2018-08-16T04:35:28.755Z,75.80
2018-08-16T04:37:58.282Z,75.62
2018-08-16T04:40:27.772Z,75.53
2018-08-16T04:42:57.791Z,75.51
2018-08-16T04:45:28.040Z,75.47
2018-08-16T04:47:57.391Z,75.96
2018-08-16T04:50:27.702Z,75.57
2018-08-16T04:52:57.376Z,75.62
2018-08-16T04:55:27.142Z,75.64
2018-08-16T04:57:56.962Z,75.48
2018-08-16T05:00:26.401Z,75.11
2018-08-16T05:02:55.819Z,75.33
2018-08-16T05:05:26.237Z,74.82
2018-08-16T05:07:55.705Z,74.81
2018-08-16T05:10:26.285Z,74.67
2018-08-16T05:12:56.357Z,74.74
2018-08-16T05:15:25.702Z,74.58
2018-08-16T05:17:55.088Z,74.42
2018-08-16T05:20:24.493Z,74.32
2018-08-16T05:22:53.813Z,74.56
2018-08-16T05:25:22.982Z,74.43
2018-08-16T05:27:52.617Z,74.69
2018-08-16T05:30:22.006Z,74.96
2018-08-16T05:32:51.299Z,74.47
2018-08-16T05:35:21.742Z,74.33
2018-08-16T05:37:50.877Z,74.60
2018-08-16T05:40:20.027Z,74.77
2018-08-16T05:42:49.595Z,74.60
2018-08-16T05:45:19.165Z,74.54
2018-08-16T05:47:48.313Z,74.80
2018-08-16T05:50:18.026Z,74.41
2018-08-16T05:52:47.340Z,74.61
2018-08-16T05:55:16.548Z,74.16
2018-08-16T05:57:45.904Z,74.26
2018-08-16T06:00:15.567Z,74.24
2018-08-16T06:02:44.892Z,73.50
2018-08-16T06:05:14.405Z,73.54
2018-08-16T06:07:43.676Z,73.85
2018-08-16T06:10:12.943Z,73.63
2018-08-16T06:12:42.347Z,72.77
2018-08-16T06:15:11.656Z,72.65
2018-08-16T06:17:40.937Z,73.07
2018-08-16T06:20:11.844Z,72.50
2018-08-16T06:22:41.389Z,72.71
2018-08-16T06:25:12.810Z,72.26
2018-08-16T06:27:42.458Z,72.81
2018-08-16T06:30:14.837Z,72.61
2018-08-16T06:32:44.840Z,72.90
2018-08-16T06:35:14.150Z,72.37
2018-08-16T06:37:43.565Z,72.80
2018-08-16T06:40:17.300Z,72.30
2018-08-16T06:42:47.576Z,72.68
2018-08-16T06:45:16.881Z,72.40
2018-08-16T06:47:46.796Z,72.43
2018-08-16T06:50:16.001Z,72.55
2018-08-16T06:52:45.248Z,72.52
2018-08-16T06:55:14.492Z,72.38
2018-08-16T06:57:43.854Z,72.61
2018-08-16T07:00:13.346Z,72.40
2018-08-16T07:02:42.694Z,72.48
2018-08-16T07:05:12.230Z,73.21
2018-08-16T07:07:41.393Z,72.87
2018-08-16T07:10:13.322Z,73.44
2018-08-16T07:12:42.419Z,73.15
2018-08-16T07:15:14.235Z,72.96
2018-08-16T07:17:44.129Z,73.70
2018-08-16T07:20:13.694Z,73.38
2018-08-16T07:22:43.076Z,73.78
2018-08-16T07:25:12.487Z,73.67
2018-08-16T07:27:41.658Z,73.89
2018-08-16T07:30:11.324Z,73.74
2018-08-16T07:32:40.763Z,73.77
2018-08-16T07:35:10.735Z,73.71
2018-08-16T07:37:40.005Z,73.52
2018-08-16T07:40:10.234Z,73.73
2018-08-16T07:42:39.445Z,73.21
2018-08-16T07:45:11.643Z,73.79
2018-08-16T07:47:41.245Z,73.69
2018-08-16T07:50:20.002Z,73.58
2018-08-16T07:52:49.441Z,73.55
2018-08-16T07:55:19.043Z,73.14
2018-08-16T07:57:48.286Z,72.45
2018-08-16T08:00:19.121Z,72.30
2018-08-16T08:02:48.273Z,72.86
2018-08-16T08:05:17.828Z,71.90
2018-08-16T08:07:47.454Z,71.93
2018-08-16T08:10:16.951Z,71.93
2018-08-16T08:12:46.094Z,71.70
2018-08-16T08:15:16.195Z,71.00
2018-08-16T08:17:45.613Z,70.92
2018-08-16T08:20:16.470Z,70.40
2018-08-16T08:22:46.039Z,70.19
2018-08-16T08:25:15.700Z,70.15
2018-08-16T08:27:44.966Z,70.30
2018-08-16T08:30:17.824Z,69.71
2018-08-16T08:32:47.345Z,69.43
2018-08-16T08:35:16.701Z,69.98
2018-08-16T08:37:57.161Z,70.19
2018-08-16T08:40:26.621Z,70.41
2018-08-16T08:42:56.131Z,70.30
2018-08-16T08:45:25.987Z,70.61
2018-08-16T08:47:58.371Z,70.18
2018-08-16T08:50:28.902Z,70.17
2018-08-16T08:55:11.214Z,70.40
2018-08-16T08:57:51.467Z,70.08
2018-08-16T09:00:21.740Z,70.65
2018-08-16T09:02:51.391Z,70.69
2018-08-16T09:05:21.389Z,70.73
2018-08-16T09:07:50.763Z,70.15
2018-08-16T09:10:57.282Z,70.67
2018-08-16T09:13:37.970Z,70.33
2018-08-16T09:16:17.632Z,70.17
2018-08-16T09:18:47.062Z,70.31
2018-08-16T09:21:17.230Z,70.18
2018-08-16T09:23:46.619Z,70.50
2018-08-16T09:26:20.930Z,69.85
2018-08-16T09:28:50.534Z,70.20
2018-08-16T09:31:30.498Z,70.37
2018-08-16T09:34:14.679Z,70.06
2018-08-16T09:36:44.066Z,70.13
2018-08-16T09:39:13.476Z,70.50
2018-08-16T09:41:43.008Z,70.25
2018-08-16T09:44:12.405Z,70.12
2018-08-16T09:46:54.715Z,69.74
2018-08-16T09:49:23.964Z,69.52
2018-08-16T09:51:53.236Z,68.71
2018-08-16T09:54:22.579Z,67.82
2018-08-16T09:56:52.461Z,67.69
2018-08-16T09:59:22.839Z,66.97
2018-08-16T10:01:52.485Z,65.04
2018-08-16T10:04:22.156Z,65.02
2018-08-16T10:06:51.468Z,63.41
2018-08-16T10:09:28.541Z,63.65
2018-08-16T10:11:58.980Z,63.23
2018-08-16T10:14:28.987Z,63.31
2018-08-16T10:16:58.605Z,61.46
2018-08-16T10:19:28.635Z,59.74
2018-08-16T10:21:58.479Z,59.11
2018-08-16T10:24:27.969Z,58.67
2018-08-16T10:26:57.421Z,59.61
2018-08-16T10:29:27.242Z,60.18
2018-08-16T10:31:56.948Z,60.61
2018-08-16T10:34:26.357Z,60.84
2018-08-16T10:36:56.221Z,61.14
2018-08-16T10:39:25.529Z,61.95
2018-08-16T10:41:55.780Z,61.64
2018-08-16T10:44:25.547Z,61.57
2018-08-16T10:46:54.724Z,61.93
2018-08-16T10:49:23.858Z,61.03
2018-08-16T10:51:53.307Z,61.62
2018-08-16T10:54:22.741Z,61.81
2018-08-16T10:56:51.885Z,61.75
2018-08-16T10:59:21.308Z,61.13
2018-08-16T11:01:51.013Z,61.28
2018-08-16T11:04:20.354Z,61.17
2018-08-16T11:06:49.970Z,60.86
2018-08-16T11:09:19.162Z,60.94
2018-08-16T11:11:48.411Z,59.70
2018-08-16T11:14:17.964Z,60.41
2018-08-16T11:16:47.140Z,59.89
2018-08-16T11:19:16.484Z,59.90
2018-08-16T11:21:45.984Z,59.78
2018-08-16T11:24:15.330Z,59.95
2018-08-16T11:26:44.864Z,59.76
2018-08-16T11:29:14.438Z,59.48
2018-08-16T11:31:43.847Z,59.08
2018-08-16T11:34:13.492Z,58.78
2018-08-16T11:36:43.006Z,58.01
2018-08-16T11:39:12.251Z,58.03
2018-08-16T11:41:41.545Z,57.79
2018-08-16T11:44:10.909Z,58.13
2018-08-16T11:46:40.092Z,58.39
2018-08-16T11:49:09.392Z,58.53
2018-08-16T11:51:38.775Z,57.93
2018-08-16T11:54:08.374Z,57.96
2018-08-16T11:56:37.641Z,57.96
2018-08-16T11:59:07.318Z,58.40
2018-08-16T12:01:36.523Z,57.97
2018-08-16T12:04:05.844Z,57.21
2018-08-16T12:06:35.645Z,57.95
2018-08-16T12:09:07.680Z,57.58
2018-08-16T12:11:36.953Z,58.07
2018-08-16T12:14:06.328Z,58.14
2018-08-16T12:16:35.545Z,58.17
2018-08-16T12:19:04.917Z,58.22
2018-08-16T12:21:34.192Z,58.68
2018-08-16T12:24:04.071Z,57.51
2018-08-16T12:26:33.455Z,57.70
2018-08-16T12:29:02.893Z,57.13
2018-08-16T12:31:33.061Z,57.85
2018-08-16T12:34:03.314Z,57.92
2018-08-16T12:36:32.401Z,57.77
2018-08-16T12:39:01.930Z,57.50
2018-08-16T12:41:31.414Z,57.18
2018-08-16T12:44:00.509Z,56.39
2018-08-16T12:46:30.352Z,57.19
2018-08-16T12:49:00.832Z,57.09
2018-08-16T12:51:30.110Z,57.29
2018-08-16T12:53:59.562Z,57.25
2018-08-16T12:56:29.843Z,56.00
2018-08-16T12:58:59.463Z,56.09
2018-08-16T13:01:29.959Z,55.99
2018-08-16T13:03:59.793Z,56.12
2018-08-16T13:06:29.345Z,56.56
2018-08-16T13:08:59.191Z,56.98
2018-08-16T13:11:29.259Z,57.60
2018-08-16T13:13:59.521Z,57.73
2018-08-16T13:16:29.220Z,58.52
2018-08-16T13:18:59.377Z,58.99
2018-08-16T13:21:28.865Z,58.78
2018-08-16T13:23:59.188Z,59.23
2018-08-16T13:26:28.947Z,59.40
2018-08-16T13:28:58.484Z,58.55
2018-08-16T13:31:28.180Z,58.50
2018-08-16T13:33:57.950Z,58.99
2018-08-16T13:36:27.553Z,59.34
2018-08-16T13:38:57.482Z,59.15
2018-08-16T13:41:27.462Z,59.38
2018-08-16T13:43:56.985Z,59.88
2018-08-16T13:46:26.426Z,59.99
2018-08-16T13:48:56.320Z,59.62
2018-08-16T13:51:25.672Z,59.73
2018-08-16T13:53:55.591Z,60.46
2018-08-16T13:56:27.307Z,60.27
2018-08-16T13:58:57.075Z,60.54
2018-08-16T14:01:26.847Z,60.94
2018-08-16T14:03:56.559Z,60.39
2018-08-16T14:06:25.952Z,60.68
2018-08-16T14:08:55.839Z,60.92
2018-08-16T14:11:25.313Z,60.60
2018-08-16T14:13:54.833Z,60.93
2018-08-16T14:16:25.142Z,60.70
2018-08-16T14:18:54.603Z,61.01
2018-08-16T14:21:23.692Z,61.15
2018-08-16T14:23:53.045Z,61.56
2018-08-16T14:26:22.220Z,61.45
2018-08-16T14:28:51.680Z,61.33
2018-08-16T14:31:21.096Z,61.03
2018-08-16T14:33:50.892Z,61.54
2018-08-16T14:36:21.012Z,61.01
2018-08-16T14:38:50.414Z,60.97
2018-08-16T14:41:19.893Z,61.35
2018-08-16T14:43:49.029Z,61.73
2018-08-16T14:46:18.638Z,61.80
2018-08-16T14:48:47.909Z,61.38
2018-08-16T14:51:17.159Z,61.34
2018-08-16T14:53:46.645Z,60.69
2018-08-16T14:56:16.415Z,60.81
2018-08-16T14:58:45.936Z,60.86
2018-08-16T15:01:15.638Z,61.11
2018-08-16T15:03:44.986Z,61.22
2018-08-16T15:06:14.153Z,60.85
2018-08-16T15:08:43.704Z,60.81
2018-08-16T15:11:12.894Z,60.13
2018-08-16T15:13:41.985Z,60.23
2018-08-16T15:16:11.640Z,60.07
2018-08-16T15:18:40.920Z,60.54
2018-08-16T15:21:10.237Z,60.40
2018-08-16T15:23:41.028Z,60.15
2018-08-16T15:26:10.500Z,60.18
2018-08-16T15:28:39.579Z,60.16
2018-08-16T15:31:09.255Z,60.99
2018-08-16T15:33:38.583Z,60.47
2018-08-16T15:36:08.083Z,61.21
2018-08-16T15:38:37.758Z,61.49
2018-08-16T15:43:37.066Z,61.57
2018-08-16T15:46:06.788Z,62.43
2018-08-16T15:48:36.557Z,61.82
2018-08-16T15:51:05.780Z,62.01
2018-08-16T15:53:35.558Z,62.62
2018-08-16T15:56:05.516Z,62.67
2018-08-16T15:58:34.786Z,62.97
2018-08-16T16:01:04.294Z,62.70
2018-08-16T16:03:33.430Z,62.56
2018-08-16T16:06:03.359Z,61.85
2018-08-16T16:08:32.740Z,62.67
2018-08-16T16:11:02.099Z,61.83
2018-08-16T16:13:31.538Z,62.58
2018-08-16T16:16:01.152Z,62.62
2018-08-16T16:18:30.400Z,62.41
2018-08-16T16:20:59.908Z,62.63
2018-08-16T16:23:30.177Z,62.82
2018-08-16T16:25:59.505Z,62.66
2018-08-16T16:28:28.912Z,63.32
2018-08-16T16:30:58.704Z,63.00
2018-08-16T16:33:28.177Z,63.47
2018-08-16T16:35:57.773Z,63.83
2018-08-16T16:38:27.728Z,63.73
2018-08-16T16:40:57.865Z,63.35
2018-08-16T16:43:27.832Z,63.11
2018-08-16T16:45:57.513Z,63.15
2018-08-16T16:48:26.779Z,63.44
2018-08-16T16:50:57.330Z,63.38
2018-08-16T16:53:27.598Z,63.70
2018-08-16T16:55:56.838Z,63.58
2018-08-16T16:58:26.778Z,64.16
2018-08-16T17:00:56.696Z,63.85
2018-08-16T17:03:26.209Z,64.08
2018-08-16T17:05:55.468Z,64.16
2018-08-16T17:08:25.027Z,64.07
2018-08-16T17:10:54.178Z,64.13
2018-08-16T17:13:23.762Z,63.94
2018-08-16T17:15:53.243Z,64.48
2018-08-16T17:18:22.800Z,64.49
2018-08-16T17:20:52.392Z,63.84
2018-08-16T17:23:22.306Z,63.88
2018-08-16T17:25:51.855Z,64.05
2018-08-16T17:28:21.269Z,63.61
2018-08-16T17:30:50.931Z,63.65
2018-08-16T17:33:20.517Z,64.25
2018-08-16T17:35:49.906Z,64.04
2018-08-16T17:38:19.117Z,63.76
2018-08-16T17:40:48.552Z,64.12
2018-08-16T17:43:18.124Z,64.04
2018-08-16T17:45:47.645Z,64.60
2018-08-16T17:48:18.065Z,64.23
2018-08-16T17:50:49.147Z,64.26
2018-08-16T17:53:18.577Z,63.63
2018-08-16T17:55:47.851Z,62.55
2018-08-16T17:58:17.606Z,61.65
2018-08-16T18:00:47.020Z,61.28
2018-08-16T18:03:16.343Z,60.70
2018-08-16T18:05:46.336Z,60.26
2018-08-16T18:08:15.668Z,60.04
2018-08-16T18:10:45.380Z,60.18
2018-08-16T18:13:15.018Z,60.11
2018-08-16T18:15:44.479Z,60.07
2018-08-16T18:18:13.631Z,60.33
2018-08-16T18:20:43.304Z,60.87
2018-08-16T18:23:12.909Z,61.98
2018-08-16T18:25:42.541Z,61.87
2018-08-16T18:28:12.540Z,62.70
2018-08-16T18:30:41.952Z,63.04
2018-08-16T18:33:11.548Z,63.26
2018-08-16T18:35:41.462Z,64.00
2018-08-16T18:38:11.338Z,64.44
2018-08-16T18:40:40.906Z,64.59
2018-08-16T18:43:10.743Z,64.71
2018-08-16T18:45:40.371Z,64.33
2018-08-16T18:48:09.904Z,64.21
2018-08-16T18:50:40.344Z,63.89
2018-08-16T18:53:10.067Z,64.07
2018-08-16T18:55:39.622Z,64.09
2018-08-16T18:58:09.423Z,63.65
2018-08-16T19:00:39.387Z,64.12
2018-08-16T19:03:09.353Z,63.61
2018-08-16T19:05:39.036Z,63.89
2018-08-16T19:08:09.335Z,63.83
2018-08-16T19:10:38.981Z,64.17
2018-08-16T19:13:08.536Z,64.90
2018-08-16T19:15:38.454Z,65.03
2018-08-16T19:18:08.141Z,64.82
2018-08-16T19:20:37.631Z,64.95
2018-08-16T19:23:07.227Z,64.87
2018-08-16T19:25:36.538Z,64.93
2018-08-16T19:28:05.865Z,65.90
2018-08-16T19:30:35.770Z,65.07
2018-08-16T19:33:05.710Z,65.51
2018-08-16T19:35:35.356Z,65.73
2018-08-16T19:38:05.112Z,65.33
2018-08-16T19:40:34.876Z,65.72
2018-08-16T19:43:04.414Z,65.23
2018-08-16T19:45:34.334Z,65.79
2018-08-16T19:48:04.113Z,65.54
2018-08-16T19:50:33.853Z,65.43
2018-08-16T19:53:03.475Z,65.38
2018-08-16T19:55:33.003Z,66.01
2018-08-16T19:58:02.813Z,65.91
2018-08-16T20:00:32.823Z,65.64
2018-08-16T20:03:02.364Z,65.81
2018-08-16T20:05:31.952Z,65.35
2018-08-16T20:08:01.794Z,65.30
2018-08-16T20:10:31.193Z,65.18
2018-08-16T20:13:00.589Z,65.14
2018-08-16T20:15:30.274Z,65.70
2018-08-16T20:18:00.465Z,65.45
2018-08-16T20:20:30.266Z,65.42
2018-08-16T20:22:59.802Z,65.56
2018-08-16T20:25:29.713Z,65.58
2018-08-16T20:27:59.520Z,65.43
2018-08-16T20:30:29.433Z,66.17
2018-08-16T20:32:59.373Z,66.20
2018-08-16T20:35:29.372Z,65.88
2018-08-16T20:37:59.430Z,66.14
2018-08-16T20:40:29.061Z,65.84
2018-08-16T20:42:58.800Z,65.75
2018-08-16T20:45:28.539Z,66.18
2018-08-16T20:47:58.598Z,65.86
2018-08-16T20:50:28.443Z,66.46
2018-08-16T20:52:58.659Z,66.58
2018-08-16T20:55:28.324Z,66.31
2018-08-16T20:57:58.192Z,66.55
2018-08-16T21:00:28.256Z,66.00
2018-08-16T21:02:58.574Z,66.17
2018-08-16T21:05:28.736Z,65.72
2018-08-16T21:07:58.613Z,66.02
2018-08-16T21:10:28.298Z,65.98
2018-08-16T21:12:58.237Z,65.71
2018-08-16T21:15:28.231Z,65.57
2018-08-16T21:17:57.863Z,65.61
2018-08-16T21:20:27.618Z,66.06
2018-08-16T21:22:57.807Z,65.85
2018-08-16T21:25:27.467Z,65.58
2018-08-16T21:27:57.145Z,65.80
2018-08-16T21:30:27.536Z,65.18
2018-08-16T21:32:57.316Z,65.50
2018-08-16T21:35:27.099Z,65.87
2018-08-16T21:37:57.269Z,65.76
2018-08-16T21:40:26.913Z,65.42
2018-08-16T21:42:56.765Z,65.87
2018-08-16T21:45:26.662Z,65.56
2018-08-16T21:47:56.594Z,65.88
2018-08-16T21:50:26.744Z,65.69
2018-08-16T21:52:56.824Z,65.69
2018-08-16T21:55:33.047Z,65.93
2018-08-16T21:58:02.917Z,65.65
2018-08-16T22:00:53.887Z,66.16
2018-08-16T22:03:24.648Z,66.21
2018-08-16T22:06:02.827Z,66.44
2018-08-16T22:08:41.133Z,65.96
2018-08-16T22:11:10.809Z,66.49
2018-08-16T22:13:40.380Z,66.09
2018-08-16T22:16:10.145Z,66.71
2018-08-16T22:18:39.988Z,66.82
2018-08-16T22:21:09.920Z,66.85
2018-08-16T22:24:42.860Z,66.55
2018-08-16T22:27:12.300Z,67.09
2018-08-16T22:29:41.690Z,66.85
2018-08-16T22:32:11.335Z,67.03
2018-08-16T22:34:40.718Z,66.95
2018-08-16T22:37:10.316Z,67.51
2018-08-16T22:39:40.069Z,66.97
2018-08-16T22:42:09.442Z,67.68
2018-08-16T22:44:38.847Z,67.71
2018-08-16T22:47:08.438Z,67.66
2018-08-16T22:49:38.369Z,67.91
2018-08-16T22:52:07.927Z,68.05
2018-08-16T22:54:37.588Z,68.04
2018-08-16T22:57:07.103Z,67.76
2018-08-16T22:59:36.768Z,67.98
2018-08-16T23:02:06.642Z,68.70
2018-08-16T23:04:35.943Z,68.84
2018-08-16T23:07:06.631Z,68.82
2018-08-16T23:09:37.416Z,68.88
2018-08-16T23:12:07.068Z,68.38
2018-08-16T23:14:36.741Z,68.65
2018-08-16T23:17:06.555Z,68.79
2018-08-16T23:19:35.963Z,68.67
2018-08-16T23:22:05.705Z,69.42
2018-08-16T23:24:35.614Z,69.92
2018-08-16T23:27:05.034Z,70.19
2018-08-16T23:29:34.384Z,70.27
2018-08-16T23:32:05.012Z,70.97
2018-08-16T23:34:34.478Z,70.92
2018-08-16T23:37:04.341Z,71.21
2018-08-16T23:39:34.024Z,71.49
2018-08-16T23:42:03.427Z,71.64
2018-08-16T23:44:33.432Z,72.30
2018-08-16T23:47:03.233Z,72.24
2018-08-16T23:49:32.674Z,72.49
2018-08-16T23:52:02.351Z,72.39
2018-08-16T23:54:32.095Z,72.14
2018-08-16T23:57:01.659Z,70.39
2018-08-16T23:59:31.035Z,70.63
